sensor_id;sensor_type;location;lat;lon;timestamp;P1;durP1;ratioP1;P2;durP2;ratioP2
4248;SDS011;8404;48.752;12.922;2022-07-18T00:02:30;4.47;;;2.42;;
4248;SDS011;8404;48.752;12.922;2022-07-18T00:04:58;3.38;;;2.30;;
4248;SDS011;8404;48.752;12.922;2022-07-18T00:07:28;3.83;;;2.65;;
4248;SDS011;8404;48.752;12.922;2022-07-18T00:09:56;2.65;;;2.17;;
4248;SDS011;8404;48.752;12.922;2022-07-18T00:12:24;3.50;;;2.65;;
4248;SDS011;8404;48.752;12.922;2022-07-18T00:14:53;3.83;;;3.13;;
4248;SDS011;8404;48.752;12.922;2022-07-18T00:17:21;2.72;;;2.10;;
4248;SDS011;8404;48.752;12.922;2022-07-18T00:19:50;4.75;;;3.05;;
4248;SDS011;8404;48.752;12.922;2022-07-18T00:22:19;3.10;;;2.63;;
4248;SDS011;8404;48.752;12.922;2022-07-18T00:24:48;3.83;;;2.65;;
4248;SDS011;8404;48.752;12.922;2022-07-18T00:27:16;3.67;;;2.63;;
4248;SDS011;8404;48.752;12.922;2022-07-18T00:29:45;3.95;;;2.28;;
4248;SDS011;8404;48.752;12.922;2022-07-18T00:32:13;4.43;;;2.70;;
4248;SDS011;8404;48.752;12.922;2022-07-18T00:34:41;3.47;;;2.72;;
4248;SDS011;8404;48.752;12.922;2022-07-18T00:37:09;3.85;;;2.67;;
4248;SDS011;8404;48.752;12.922;2022-07-18T00:39:38;2.78;;;2.45;;
4248;SDS011;8404;48.752;12.922;2022-07-18T00:42:07;3.78;;;2.58;;
4248;SDS011;8404;48.752;12.922;2022-07-18T00:44:36;3.40;;;2.97;;
4248;SDS011;8404;48.752;12.922;2022-07-18T00:47:04;4.05;;;3.47;;
4248;SDS011;8404;48.752;12.922;2022-07-18T00:49:33;6.32;;;2.63;;
4248;SDS011;8404;48.752;12.922;2022-07-18T00:52:01;3.50;;;2.80;;
4248;SDS011;8404;48.752;12.922;2022-07-18T00:54:30;4.03;;;2.72;;
4248;SDS011;8404;48.752;12.922;2022-07-18T00:56:59;5.28;;;3.20;;
4248;SDS011;8404;48.752;12.922;2022-07-18T00:59:29;3.38;;;2.88;;
4248;SDS011;8404;48.752;12.922;2022-07-18T01:02:11;3.63;;;2.90;;
4248;SDS011;8404;48.752;12.922;2022-07-18T01:04:39;4.50;;;2.55;;
4248;SDS011;8404;48.752;12.922;2022-07-18T01:07:08;4.55;;;2.70;;
4248;SDS011;8404;48.752;12.922;2022-07-18T01:09:36;3.97;;;2.78;;
4248;SDS011;8404;48.752;12.922;2022-07-18T01:12:06;3.95;;;2.38;;
4248;SDS011;8404;48.752;12.922;2022-07-18T01:14:36;3.13;;;2.58;;
4248;SDS011;8404;48.752;12.922;2022-07-18T01:17:11;3.25;;;2.00;;
4248;SDS011;8404;48.752;12.922;2022-07-18T01:19:43;2.88;;;2.55;;
4248;SDS011;8404;48.752;12.922;2022-07-18T01:22:14;3.72;;;1.77;;
4248;SDS011;8404;48.752;12.922;2022-07-18T01:24:45;2.53;;;2.28;;
4248;SDS011;8404;48.752;12.922;2022-07-18T01:27:14;3.50;;;2.08;;
4248;SDS011;8404;48.752;12.922;2022-07-18T01:29:42;4.05;;;2.28;;
4248;SDS011;8404;48.752;12.922;2022-07-18T01:32:11;2.50;;;2.00;;
4248;SDS011;8404;48.752;12.922;2022-07-18T01:34:40;4.10;;;2.45;;
4248;SDS011;8404;48.752;12.922;2022-07-18T01:37:10;2.63;;;2.10;;
4248;SDS011;8404;48.752;12.922;2022-07-18T01:39:40;4.20;;;2.25;;
4248;SDS011;8404;48.752;12.922;2022-07-18T01:42:08;3.35;;;2.35;;
4248;SDS011;8404;48.752;12.922;2022-07-18T01:44:38;2.97;;;2.45;;
4248;SDS011;8404;48.752;12.922;2022-07-18T01:47:07;3.53;;;2.15;;
4248;SDS011;8404;48.752;12.922;2022-07-18T01:49:37;3.35;;;2.50;;
4248;SDS011;8404;48.752;12.922;2022-07-18T01:52:06;3.28;;;2.58;;
4248;SDS011;8404;48.752;12.922;2022-07-18T01:54:36;2.72;;;2.42;;
4248;SDS011;8404;48.752;12.922;2022-07-18T01:57:06;3.45;;;2.50;;
4248;SDS011;8404;48.752;12.922;2022-07-18T01:59:35;2.20;;;1.88;;
4248;SDS011;8404;48.752;12.922;2022-07-18T02:02:03;3.20;;;2.15;;
4248;SDS011;8404;48.752;12.922;2022-07-18T02:04:35;2.88;;;2.35;;
4248;SDS011;8404;48.752;12.922;2022-07-18T02:07:21;2.65;;;2.10;;
4248;SDS011;8404;48.752;12.922;2022-07-18T02:09:50;2.67;;;1.92;;
4248;SDS011;8404;48.752;12.922;2022-07-18T02:12:20;3.13;;;1.98;;
4248;SDS011;8404;48.752;12.922;2022-07-18T02:14:48;3.00;;;1.95;;
4248;SDS011;8404;48.752;12.922;2022-07-18T02:17:17;2.58;;;2.20;;
4248;SDS011;8404;48.752;12.922;2022-07-18T02:19:46;2.58;;;2.08;;
4248;SDS011;8404;48.752;12.922;2022-07-18T02:22:15;2.90;;;2.42;;
4248;SDS011;8404;48.752;12.922;2022-07-18T02:24:43;3.10;;;2.53;;
4248;SDS011;8404;48.752;12.922;2022-07-18T02:27:11;3.05;;;2.35;;
4248;SDS011;8404;48.752;12.922;2022-07-18T02:29:41;2.83;;;2.55;;
4248;SDS011;8404;48.752;12.922;2022-07-18T02:32:09;3.45;;;2.88;;
4248;SDS011;8404;48.752;12.922;2022-07-18T02:34:38;2.50;;;2.28;;
4248;SDS011;8404;48.752;12.922;2022-07-18T02:37:06;2.55;;;2.35;;
4248;SDS011;8404;48.752;12.922;2022-07-18T02:39:35;4.03;;;2.75;;
4248;SDS011;8404;48.752;12.922;2022-07-18T02:42:03;3.10;;;2.58;;
4248;SDS011;8404;48.752;12.922;2022-07-18T02:44:34;4.13;;;2.72;;
4248;SDS011;8404;48.752;12.922;2022-07-18T02:47:04;2.88;;;2.53;;
4248;SDS011;8404;48.752;12.922;2022-07-18T02:49:32;2.67;;;2.30;;
4248;SDS011;8404;48.752;12.922;2022-07-18T02:52:01;4.22;;;2.60;;
4248;SDS011;8404;48.752;12.922;2022-07-18T02:54:31;2.70;;;2.17;;
4248;SDS011;8404;48.752;12.922;2022-07-18T02:57:02;3.42;;;2.70;;
4248;SDS011;8404;48.752;12.922;2022-07-18T02:59:30;3.75;;;2.40;;
4248;SDS011;8404;48.752;12.922;2022-07-18T03:01:59;3.15;;;2.03;;
4248;SDS011;8404;48.752;12.922;2022-07-18T03:04:29;3.92;;;2.75;;
4248;SDS011;8404;48.752;12.922;2022-07-18T03:06:59;3.78;;;2.17;;
4248;SDS011;8404;48.752;12.922;2022-07-18T03:09:27;5.68;;;3.00;;
4248;SDS011;8404;48.752;12.922;2022-07-18T03:11:56;3.17;;;2.22;;
4248;SDS011;8404;48.752;12.922;2022-07-18T03:14:25;3.13;;;2.45;;
4248;SDS011;8404;48.752;12.922;2022-07-18T03:16:53;3.13;;;2.45;;
4248;SDS011;8404;48.752;12.922;2022-07-18T03:19:22;3.05;;;2.75;;
4248;SDS011;8404;48.752;12.922;2022-07-18T03:21:51;4.60;;;2.72;;
4248;SDS011;8404;48.752;12.922;2022-07-18T03:24:19;3.70;;;2.67;;
4248;SDS011;8404;48.752;12.922;2022-07-18T03:26:48;4.28;;;3.30;;
4248;SDS011;8404;48.752;12.922;2022-07-18T03:29:16;3.55;;;3.10;;
4248;SDS011;8404;48.752;12.922;2022-07-18T03:31:44;4.18;;;2.97;;
4248;SDS011;8404;48.752;12.922;2022-07-18T03:34:13;3.70;;;2.90;;
4248;SDS011;8404;48.752;12.922;2022-07-18T03:36:41;5.15;;;4.00;;
4248;SDS011;8404;48.752;12.922;2022-07-18T03:39:11;3.60;;;2.83;;
4248;SDS011;8404;48.752;12.922;2022-07-18T03:41:40;3.25;;;2.95;;
4248;SDS011;8404;48.752;12.922;2022-07-18T03:44:08;4.40;;;3.60;;
4248;SDS011;8404;48.752;12.922;2022-07-18T03:46:36;3.40;;;2.65;;
4248;SDS011;8404;48.752;12.922;2022-07-18T03:49:05;3.65;;;2.83;;
4248;SDS011;8404;48.752;12.922;2022-07-18T03:51:33;4.70;;;2.50;;
4248;SDS011;8404;48.752;12.922;2022-07-18T03:54:01;3.65;;;2.55;;
4248;SDS011;8404;48.752;12.922;2022-07-18T03:56:31;4.13;;;3.03;;
4248;SDS011;8404;48.752;12.922;2022-07-18T03:59:00;3.20;;;2.90;;
4248;SDS011;8404;48.752;12.922;2022-07-18T04:01:28;3.17;;;2.83;;
4248;SDS011;8404;48.752;12.922;2022-07-18T04:03:57;3.13;;;2.70;;
4248;SDS011;8404;48.752;12.922;2022-07-18T04:06:25;2.70;;;2.28;;
4248;SDS011;8404;48.752;12.922;2022-07-18T04:08:53;3.47;;;2.63;;
4248;SDS011;8404;48.752;12.922;2022-07-18T04:11:22;3.00;;;2.50;;
4248;SDS011;8404;48.752;12.922;2022-07-18T04:13:52;4.50;;;3.00;;
4248;SDS011;8404;48.752;12.922;2022-07-18T04:16:21;2.63;;;2.30;;
4248;SDS011;8404;48.752;12.922;2022-07-18T04:18:50;3.72;;;2.80;;
4248;SDS011;8404;48.752;12.922;2022-07-18T04:21:19;3.35;;;2.72;;
4248;SDS011;8404;48.752;12.922;2022-07-18T04:23:47;4.75;;;3.15;;
4248;SDS011;8404;48.752;12.922;2022-07-18T04:26:16;3.88;;;3.13;;
4248;SDS011;8404;48.752;12.922;2022-07-18T04:28:44;4.45;;;2.60;;
4248;SDS011;8404;48.752;12.922;2022-07-18T04:31:14;2.95;;;2.40;;
4248;SDS011;8404;48.752;12.922;2022-07-18T04:33:42;3.20;;;2.90;;
4248;SDS011;8404;48.752;12.922;2022-07-18T04:36:11;3.80;;;2.58;;
4248;SDS011;8404;48.752;12.922;2022-07-18T04:38:39;3.05;;;2.75;;
4248;SDS011;8404;48.752;12.922;2022-07-18T04:41:07;3.58;;;2.75;;
4248;SDS011;8404;48.752;12.922;2022-07-18T04:43:35;4.50;;;3.38;;
4248;SDS011;8404;48.752;12.922;2022-07-18T04:46:04;4.15;;;3.05;;
4248;SDS011;8404;48.752;12.922;2022-07-18T04:48:34;4.53;;;3.53;;
4248;SDS011;8404;48.752;12.922;2022-07-18T04:51:03;3.35;;;3.05;;
4248;SDS011;8404;48.752;12.922;2022-07-18T04:53:32;4.38;;;3.40;;
4248;SDS011;8404;48.752;12.922;2022-07-18T04:56:00;5.35;;;3.60;;
4248;SDS011;8404;48.752;12.922;2022-07-18T04:58:28;3.72;;;2.78;;
4248;SDS011;8404;48.752;12.922;2022-07-18T05:00:56;3.65;;;3.25;;
4248;SDS011;8404;48.752;12.922;2022-07-18T05:03:25;3.75;;;2.75;;
4248;SDS011;8404;48.752;12.922;2022-07-18T05:05:55;3.72;;;2.92;;
4248;SDS011;8404;48.752;12.922;2022-07-18T05:08:23;3.58;;;2.75;;
4248;SDS011;8404;48.752;12.922;2022-07-18T05:10:51;3.15;;;2.40;;
4248;SDS011;8404;48.752;12.922;2022-07-18T05:13:20;3.90;;;2.45;;
4248;SDS011;8404;48.752;12.922;2022-07-18T05:15:48;3.60;;;3.00;;
4248;SDS011;8404;48.752;12.922;2022-07-18T05:18:16;3.95;;;2.58;;
4248;SDS011;8404;48.752;12.922;2022-07-18T05:20:44;3.05;;;2.75;;
4248;SDS011;8404;48.752;12.922;2022-07-18T05:23:14;3.53;;;2.95;;
4248;SDS011;8404;48.752;12.922;2022-07-18T05:25:43;2.65;;;2.10;;
4248;SDS011;8404;48.752;12.922;2022-07-18T05:28:12;3.92;;;2.58;;
4248;SDS011;8404;48.752;12.922;2022-07-18T05:30:40;2.60;;;2.40;;
4248;SDS011;8404;48.752;12.922;2022-07-18T05:33:08;2.60;;;1.90;;
4248;SDS011;8404;48.752;12.922;2022-07-18T05:35:37;2.88;;;2.10;;
4248;SDS011;8404;48.752;12.922;2022-07-18T05:38:05;2.88;;;1.80;;
4248;SDS011;8404;48.752;12.922;2022-07-18T05:40:35;3.00;;;2.40;;
4248;SDS011;8404;48.752;12.922;2022-07-18T05:43:03;2.63;;;2.30;;
4248;SDS011;8404;48.752;12.922;2022-07-18T05:45:32;3.63;;;2.50;;
4248;SDS011;8404;48.752;12.922;2022-07-18T05:48:00;3.25;;;2.50;;
4248;SDS011;8404;48.752;12.922;2022-07-18T05:50:29;4.43;;;2.13;;
4248;SDS011;8404;48.752;12.922;2022-07-18T05:52:57;4.10;;;2.33;;
4248;SDS011;8404;48.752;12.922;2022-07-18T05:55:26;3.25;;;2.15;;
4248;SDS011;8404;48.752;12.922;2022-07-18T05:57:55;3.22;;;1.90;;
4248;SDS011;8404;48.752;12.922;2022-07-18T06:00:24;3.08;;;1.95;;
4248;SDS011;8404;48.752;12.922;2022-07-18T06:02:52;5.35;;;2.15;;
4248;SDS011;8404;48.752;12.922;2022-07-18T06:05:21;3.33;;;2.28;;
4248;SDS011;8404;48.752;12.922;2022-07-18T06:07:51;2.03;;;1.58;;
4248;SDS011;8404;48.752;12.922;2022-07-18T06:10:21;5.00;;;2.00;;
4248;SDS011;8404;48.752;12.922;2022-07-18T06:12:50;2.35;;;1.63;;
4248;SDS011;8404;48.752;12.922;2022-07-18T06:15:20;3.00;;;2.00;;
4248;SDS011;8404;48.752;12.922;2022-07-18T06:17:49;2.28;;;2.05;;
4248;SDS011;8404;48.752;12.922;2022-07-18T06:20:18;3.65;;;1.77;;
4248;SDS011;8404;48.752;12.922;2022-07-18T06:22:47;2.53;;;1.80;;
4248;SDS011;8404;48.752;12.922;2022-07-18T06:25:15;2.80;;;1.70;;
4248;SDS011;8404;48.752;12.922;2022-07-18T06:27:44;2.58;;;1.52;;
4248;SDS011;8404;48.752;12.922;2022-07-18T06:30:12;2.60;;;1.60;;
4248;SDS011;8404;48.752;12.922;2022-07-18T06:32:42;2.75;;;1.70;;
4248;SDS011;8404;48.752;12.922;2022-07-18T06:35:10;2.47;;;1.73;;
4248;SDS011;8404;48.752;12.922;2022-07-18T06:37:38;2.15;;;1.45;;
4248;SDS011;8404;48.752;12.922;2022-07-18T06:40:07;1.98;;;1.65;;
4248;SDS011;8404;48.752;12.922;2022-07-18T06:42:36;2.47;;;1.45;;
4248;SDS011;8404;48.752;12.922;2022-07-18T06:45:05;2.50;;;1.50;;
4248;SDS011;8404;48.752;12.922;2022-07-18T06:47:39;2.75;;;1.67;;
4248;SDS011;8404;48.752;12.922;2022-07-18T06:50:10;3.65;;;1.88;;
4248;SDS011;8404;48.752;12.922;2022-07-18T06:52:39;2.90;;;1.33;;
4248;SDS011;8404;48.752;12.922;2022-07-18T06:55:09;2.83;;;1.60;;
4248;SDS011;8404;48.752;12.922;2022-07-18T06:57:38;3.55;;;1.50;;
4248;SDS011;8404;48.752;12.922;2022-07-18T07:00:08;2.85;;;1.33;;
4248;SDS011;8404;48.752;12.922;2022-07-18T07:02:43;1.70;;;1.27;;
4248;SDS011;8404;48.752;12.922;2022-07-18T07:05:12;1.42;;;1.10;;
4248;SDS011;8404;48.752;12.922;2022-07-18T07:07:41;2.35;;;1.30;;
4248;SDS011;8404;48.752;12.922;2022-07-18T07:10:14;2.05;;;0.90;;
4248;SDS011;8404;48.752;12.922;2022-07-18T07:12:44;3.17;;;1.25;;
4248;SDS011;8404;48.752;12.922;2022-07-18T07:15:14;2.60;;;0.95;;
4248;SDS011;8404;48.752;12.922;2022-07-18T07:17:46;4.63;;;1.35;;
4248;SDS011;8404;48.752;12.922;2022-07-18T07:20:15;3.30;;;1.20;;
4248;SDS011;8404;48.752;12.922;2022-07-18T07:22:47;1.35;;;0.90;;
4248;SDS011;8404;48.752;12.922;2022-07-18T07:25:17;5.45;;;1.75;;
4248;SDS011;8404;48.752;12.922;2022-07-18T07:27:46;4.03;;;1.10;;
4248;SDS011;8404;48.752;12.922;2022-07-18T07:30:14;2.03;;;1.05;;
4248;SDS011;8404;48.752;12.922;2022-07-18T07:32:44;2.88;;;1.52;;
4248;SDS011;8404;48.752;12.922;2022-07-18T07:35:16;3.28;;;1.10;;
4248;SDS011;8404;48.752;12.922;2022-07-18T07:37:46;2.05;;;1.40;;
4248;SDS011;8404;48.752;12.922;2022-07-18T07:40:15;2.80;;;1.00;;
4248;SDS011;8404;48.752;12.922;2022-07-18T07:42:44;4.30;;;1.20;;
4248;SDS011;8404;48.752;12.922;2022-07-18T07:45:13;2.33;;;1.17;;
4248;SDS011;8404;48.752;12.922;2022-07-18T07:47:42;3.63;;;1.13;;
4248;SDS011;8404;48.752;12.922;2022-07-18T07:50:11;1.83;;;1.23;;
4248;SDS011;8404;48.752;12.922;2022-07-18T07:52:41;3.75;;;1.10;;
4248;SDS011;8404;48.752;12.922;2022-07-18T07:55:09;2.35;;;1.35;;
4248;SDS011;8404;48.752;12.922;2022-07-18T07:57:38;2.50;;;1.23;;
4248;SDS011;8404;48.752;12.922;2022-07-18T08:00:06;2.00;;;0.90;;
4248;SDS011;8404;48.752;12.922;2022-07-18T08:02:49;2.20;;;1.40;;
4248;SDS011;8404;48.752;12.922;2022-07-18T08:05:26;2.88;;;1.08;;
4248;SDS011;8404;48.752;12.922;2022-07-18T08:07:56;2.85;;;0.95;;
4248;SDS011;8404;48.752;12.922;2022-07-18T08:10:25;1.60;;;1.10;;
4248;SDS011;8404;48.752;12.922;2022-07-18T08:12:54;1.85;;;1.15;;
4248;SDS011;8404;48.752;12.922;2022-07-18T08:15:22;3.92;;;1.50;;
4248;SDS011;8404;48.752;12.922;2022-07-18T08:17:51;2.20;;;1.17;;
4248;SDS011;8404;48.752;12.922;2022-07-18T08:20:20;3.67;;;1.10;;
4248;SDS011;8404;48.752;12.922;2022-07-18T08:22:52;2.53;;;1.15;;
4248;SDS011;8404;48.752;12.922;2022-07-18T08:25:27;2.28;;;1.15;;
4248;SDS011;8404;48.752;12.922;2022-07-18T08:27:57;2.80;;;1.25;;
4248;SDS011;8404;48.752;12.922;2022-07-18T08:30:26;4.50;;;1.33;;
4248;SDS011;8404;48.752;12.922;2022-07-18T08:32:55;1.73;;;1.05;;
4248;SDS011;8404;48.752;12.922;2022-07-18T08:35:25;3.70;;;1.10;;
4248;SDS011;8404;48.752;12.922;2022-07-18T08:37:53;3.40;;;1.27;;
4248;SDS011;8404;48.752;12.922;2022-07-18T08:40:23;2.40;;;1.08;;
4248;SDS011;8404;48.752;12.922;2022-07-18T08:42:52;3.75;;;1.40;;
4248;SDS011;8404;48.752;12.922;2022-07-18T08:45:42;1.23;;;0.77;;
4248;SDS011;8404;48.752;12.922;2022-07-18T08:48:12;2.38;;;0.95;;
4248;SDS011;8404;48.752;12.922;2022-07-18T08:50:41;2.70;;;1.30;;
4248;SDS011;8404;48.752;12.922;2022-07-18T08:53:11;2.30;;;1.00;;
4248;SDS011;8404;48.752;12.922;2022-07-18T08:55:41;2.67;;;1.10;;
4248;SDS011;8404;48.752;12.922;2022-07-18T08:58:10;2.38;;;1.27;;
4248;SDS011;8404;48.752;12.922;2022-07-18T09:01:00;1.98;;;1.30;;
4248;SDS011;8404;48.752;12.922;2022-07-18T09:03:29;2.33;;;1.15;;
4248;SDS011;8404;48.752;12.922;2022-07-18T09:06:08;4.22;;;1.23;;
4248;SDS011;8404;48.752;12.922;2022-07-18T09:08:38;3.70;;;1.52;;
4248;SDS011;8404;48.752;12.922;2022-07-18T09:11:11;1.77;;;1.10;;
4248;SDS011;8404;48.752;12.922;2022-07-18T09:14:00;2.20;;;1.20;;
4248;SDS011;8404;48.752;12.922;2022-07-18T09:16:28;2.42;;;1.20;;
4248;SDS011;8404;48.752;12.922;2022-07-18T09:18:58;1.48;;;0.90;;
4248;SDS011;8404;48.752;12.922;2022-07-18T09:21:35;4.88;;;1.38;;
4248;SDS011;8404;48.752;12.922;2022-07-18T09:24:04;3.55;;;1.38;;
4248;SDS011;8404;48.752;12.922;2022-07-18T09:26:37;1.80;;;0.93;;
4248;SDS011;8404;48.752;12.922;2022-07-18T09:29:07;5.85;;;1.30;;
4248;SDS011;8404;48.752;12.922;2022-07-18T09:31:54;2.17;;;1.10;;
4248;SDS011;8404;48.752;12.922;2022-07-18T09:34:32;1.90;;;1.10;;
4248;SDS011;8404;48.752;12.922;2022-07-18T09:37:02;2.67;;;1.27;;
4248;SDS011;8404;48.752;12.922;2022-07-18T09:39:31;2.30;;;1.30;;
4248;SDS011;8404;48.752;12.922;2022-07-18T09:42:14;1.85;;;1.00;;
4248;SDS011;8404;48.752;12.922;2022-07-18T09:44:47;2.03;;;1.30;;
4248;SDS011;8404;48.752;12.922;2022-07-18T09:47:25;2.55;;;1.52;;
4248;SDS011;8404;48.752;12.922;2022-07-18T09:49:54;2.50;;;1.50;;
4248;SDS011;8404;48.752;12.922;2022-07-18T09:52:22;5.95;;;1.00;;
4248;SDS011;8404;48.752;12.922;2022-07-18T09:54:51;1.70;;;0.93;;
4248;SDS011;8404;48.752;12.922;2022-07-18T09:57:33;3.67;;;1.17;;
4248;SDS011;8404;48.752;12.922;2022-07-18T10:00:04;1.70;;;1.00;;
4248;SDS011;8404;48.752;12.922;2022-07-18T10:02:37;1.30;;;1.08;;
4248;SDS011;8404;48.752;12.922;2022-07-18T10:05:06;1.98;;;1.35;;
4248;SDS011;8404;48.752;12.922;2022-07-18T10:07:36;1.63;;;0.93;;
4248;SDS011;8404;48.752;12.922;2022-07-18T10:10:05;2.38;;;1.15;;
4248;SDS011;8404;48.752;12.922;2022-07-18T10:12:35;2.13;;;1.30;;
4248;SDS011;8404;48.752;12.922;2022-07-18T10:15:04;2.30;;;1.20;;
4248;SDS011;8404;48.752;12.922;2022-07-18T10:17:33;2.42;;;0.98;;
4248;SDS011;8404;48.752;12.922;2022-07-18T10:20:06;2.70;;;1.10;;
4248;SDS011;8404;48.752;12.922;2022-07-18T10:22:36;1.30;;;0.90;;
4248;SDS011;8404;48.752;12.922;2022-07-18T10:25:09;3.97;;;1.30;;
4248;SDS011;8404;48.752;12.922;2022-07-18T10:27:49;1.67;;;0.90;;
4248;SDS011;8404;48.752;12.922;2022-07-18T10:30:28;1.88;;;1.30;;
4248;SDS011;8404;48.752;12.922;2022-07-18T10:33:02;1.35;;;0.82;;
4248;SDS011;8404;48.752;12.922;2022-07-18T10:38:29;2.65;;;1.10;;
4248;SDS011;8404;48.752;12.922;2022-07-18T10:41:01;1.98;;;1.10;;
4248;SDS011;8404;48.752;12.922;2022-07-18T10:43:40;2.90;;;1.25;;
4248;SDS011;8404;48.752;12.922;2022-07-18T10:46:10;3.65;;;1.08;;
4248;SDS011;8404;48.752;12.922;2022-07-18T10:48:55;3.72;;;2.13;;
4248;SDS011;8404;48.752;12.922;2022-07-18T10:51:31;3.13;;;1.10;;
4248;SDS011;8404;48.752;12.922;2022-07-18T10:54:05;1.80;;;0.90;;
4248;SDS011;8404;48.752;12.922;2022-07-18T11:02:32;1.33;;;0.82;;
4248;SDS011;8404;48.752;12.922;2022-07-18T11:05:02;1.85;;;1.10;;
4248;SDS011;8404;48.752;12.922;2022-07-18T11:13:37;1.60;;;0.77;;
4248;SDS011;8404;48.752;12.922;2022-07-18T11:16:09;2.58;;;0.70;;
4248;SDS011;8404;48.752;12.922;2022-07-18T11:21:43;2.40;;;0.80;;
4248;SDS011;8404;48.752;12.922;2022-07-18T11:24:13;2.90;;;0.85;;
4248;SDS011;8404;48.752;12.922;2022-07-18T11:26:45;2.33;;;0.80;;
4248;SDS011;8404;48.752;12.922;2022-07-18T11:29:15;2.83;;;0.70;;
4248;SDS011;8404;48.752;12.922;2022-07-18T11:31:49;4.60;;;0.98;;
4248;SDS011;8404;48.752;12.922;2022-07-18T11:34:19;3.05;;;0.98;;
4248;SDS011;8404;48.752;12.922;2022-07-18T11:37:01;1.30;;;0.60;;
4248;SDS011;8404;48.752;12.922;2022-07-18T11:39:30;1.42;;;0.65;;
4248;SDS011;8404;48.752;12.922;2022-07-18T11:42:00;2.75;;;0.90;;
4248;SDS011;8404;48.752;12.922;2022-07-18T11:44:28;1.27;;;0.63;;
4248;SDS011;8404;48.752;12.922;2022-07-18T11:47:02;2.10;;;0.90;;
4248;SDS011;8404;48.752;12.922;2022-07-18T11:49:32;1.30;;;0.70;;
4248;SDS011;8404;48.752;12.922;2022-07-18T11:52:00;2.47;;;0.50;;
4248;SDS011;8404;48.752;12.922;2022-07-18T11:54:29;1.30;;;0.82;;
4248;SDS011;8404;48.752;12.922;2022-07-18T11:56:59;1.40;;;0.90;;
4248;SDS011;8404;48.752;12.922;2022-07-18T11:59:37;1.77;;;0.93;;
4248;SDS011;8404;48.752;12.922;2022-07-18T12:02:08;1.17;;;0.63;;
4248;SDS011;8404;48.752;12.922;2022-07-18T12:04:38;3.28;;;0.88;;
4248;SDS011;8404;48.752;12.922;2022-07-18T12:07:12;1.63;;;0.85;;
4248;SDS011;8404;48.752;12.922;2022-07-18T12:09:48;1.08;;;0.60;;
4248;SDS011;8404;48.752;12.922;2022-07-18T12:12:18;4.07;;;1.00;;
4248;SDS011;8404;48.752;12.922;2022-07-18T12:14:53;1.05;;;0.47;;
4248;SDS011;8404;48.752;12.922;2022-07-18T12:17:27;1.83;;;0.98;;
4248;SDS011;8404;48.752;12.922;2022-07-18T12:20:09;1.50;;;0.90;;
4248;SDS011;8404;48.752;12.922;2022-07-18T12:25:56;1.02;;;0.55;;
4248;SDS011;8404;48.752;12.922;2022-07-18T12:28:26;0.85;;;0.47;;
4248;SDS011;8404;48.752;12.922;2022-07-18T12:30:55;2.08;;;0.82;;
4248;SDS011;8404;48.752;12.922;2022-07-18T12:33:28;1.20;;;0.80;;
4248;SDS011;8404;48.752;12.922;2022-07-18T12:35:56;2.25;;;1.02;;
4248;SDS011;8404;48.752;12.922;2022-07-18T12:38:26;2.03;;;0.70;;
4248;SDS011;8404;48.752;12.922;2022-07-18T12:40:55;1.25;;;0.70;;
4248;SDS011;8404;48.752;12.922;2022-07-18T12:43:27;3.55;;;0.60;;
4248;SDS011;8404;48.752;12.922;2022-07-18T12:45:57;2.00;;;0.85;;
4248;SDS011;8404;48.752;12.922;2022-07-18T12:48:29;3.90;;;0.82;;
4248;SDS011;8404;48.752;12.922;2022-07-18T12:51:00;2.00;;;0.70;;
4248;SDS011;8404;48.752;12.922;2022-07-18T12:53:30;1.50;;;0.60;;
4248;SDS011;8404;48.752;12.922;2022-07-18T12:56:00;2.47;;;0.95;;
4248;SDS011;8404;48.752;12.922;2022-07-18T12:58:29;1.08;;;0.50;;
4248;SDS011;8404;48.752;12.922;2022-07-18T13:00:57;1.42;;;0.70;;
4248;SDS011;8404;48.752;12.922;2022-07-18T13:03:33;2.42;;;0.45;;
4248;SDS011;8404;48.752;12.922;2022-07-18T13:06:02;2.05;;;0.73;;
4248;SDS011;8404;48.752;12.922;2022-07-18T13:08:31;2.97;;;0.65;;
4248;SDS011;8404;48.752;12.922;2022-07-18T13:11:00;1.23;;;0.60;;
4248;SDS011;8404;48.752;12.922;2022-07-18T13:13:29;2.35;;;0.73;;
4248;SDS011;8404;48.752;12.922;2022-07-18T13:15:57;1.45;;;0.68;;
4248;SDS011;8404;48.752;12.922;2022-07-18T13:18:25;2.05;;;0.60;;
4248;SDS011;8404;48.752;12.922;2022-07-18T13:20:55;2.22;;;0.70;;
4248;SDS011;8404;48.752;12.922;2022-07-18T13:23:24;3.80;;;0.90;;
4248;SDS011;8404;48.752;12.922;2022-07-18T13:25:52;0.90;;;0.60;;
4248;SDS011;8404;48.752;12.922;2022-07-18T13:28:20;1.23;;;0.50;;
4248;SDS011;8404;48.752;12.922;2022-07-18T13:30:49;1.85;;;0.80;;
4248;SDS011;8404;48.752;12.922;2022-07-18T13:33:17;3.20;;;0.70;;
4248;SDS011;8404;48.752;12.922;2022-07-18T13:35:46;1.38;;;0.63;;
4248;SDS011;8404;48.752;12.922;2022-07-18T13:38:15;2.10;;;0.63;;
4248;SDS011;8404;48.752;12.922;2022-07-18T13:40:44;1.60;;;0.60;;
4248;SDS011;8404;48.752;12.922;2022-07-18T13:43:12;4.03;;;0.90;;
4248;SDS011;8404;48.752;12.922;2022-07-18T13:45:41;2.22;;;0.77;;
4248;SDS011;8404;48.752;12.922;2022-07-18T13:48:09;1.55;;;0.63;;
4248;SDS011;8404;48.752;12.922;2022-07-18T13:50:38;1.48;;;0.40;;
4248;SDS011;8404;48.752;12.922;2022-07-18T13:53:06;1.83;;;0.52;;
4248;SDS011;8404;48.752;12.922;2022-07-18T13:55:36;1.52;;;0.73;;
4248;SDS011;8404;48.752;12.922;2022-07-18T13:58:05;1.23;;;0.73;;
4248;SDS011;8404;48.752;12.922;2022-07-18T14:00:33;2.15;;;0.70;;
4248;SDS011;8404;48.752;12.922;2022-07-18T14:03:02;2.25;;;0.90;;
4248;SDS011;8404;48.752;12.922;2022-07-18T14:05:32;2.92;;;0.88;;
4248;SDS011;8404;48.752;12.922;2022-07-18T14:08:01;3.22;;;0.80;;
4248;SDS011;8404;48.752;12.922;2022-07-18T14:10:29;1.65;;;0.77;;
4248;SDS011;8404;48.752;12.922;2022-07-18T14:12:59;3.47;;;0.90;;
4248;SDS011;8404;48.752;12.922;2022-07-18T14:15:28;1.30;;;0.70;;
4248;SDS011;8404;48.752;12.922;2022-07-18T14:17:57;3.35;;;0.70;;
4248;SDS011;8404;48.752;12.922;2022-07-18T14:20:25;2.25;;;0.40;;
4248;SDS011;8404;48.752;12.922;2022-07-18T14:22:54;1.13;;;0.60;;
4248;SDS011;8404;48.752;12.922;2022-07-18T14:25:22;1.55;;;0.40;;
4248;SDS011;8404;48.752;12.922;2022-07-18T14:27:51;2.00;;;0.70;;
4248;SDS011;8404;48.752;12.922;2022-07-18T14:30:20;1.30;;;0.43;;
4248;SDS011;8404;48.752;12.922;2022-07-18T14:32:48;1.25;;;0.60;;
4248;SDS011;8404;48.752;12.922;2022-07-18T14:35:17;0.98;;;0.47;;
4248;SDS011;8404;48.752;12.922;2022-07-18T14:37:46;1.73;;;0.45;;
4248;SDS011;8404;48.752;12.922;2022-07-18T14:40:16;1.23;;;0.40;;
4248;SDS011;8404;48.752;12.922;2022-07-18T14:42:45;1.92;;;0.60;;
4248;SDS011;8404;48.752;12.922;2022-07-18T14:45:13;1.75;;;0.50;;
4248;SDS011;8404;48.752;12.922;2022-07-18T14:47:43;4.65;;;0.85;;
4248;SDS011;8404;48.752;12.922;2022-07-18T14:50:11;2.08;;;0.50;;
4248;SDS011;8404;48.752;12.922;2022-07-18T14:52:40;0.82;;;0.30;;
4248;SDS011;8404;48.752;12.922;2022-07-18T14:55:08;1.10;;;0.70;;
4248;SDS011;8404;48.752;12.922;2022-07-18T14:57:37;1.52;;;0.30;;
4248;SDS011;8404;48.752;12.922;2022-07-18T15:00:06;0.43;;;0.40;;
4248;SDS011;8404;48.752;12.922;2022-07-18T15:02:36;1.20;;;0.50;;
4248;SDS011;8404;48.752;12.922;2022-07-18T15:05:07;1.40;;;0.50;;
4248;SDS011;8404;48.752;12.922;2022-07-18T15:07:36;1.00;;;0.57;;
4248;SDS011;8404;48.752;12.922;2022-07-18T15:10:05;1.25;;;0.38;;
4248;SDS011;8404;48.752;12.922;2022-07-18T15:12:35;0.45;;;0.25;;
4248;SDS011;8404;48.752;12.922;2022-07-18T15:15:04;2.33;;;0.60;;
4248;SDS011;8404;48.752;12.922;2022-07-18T15:17:33;1.05;;;0.45;;
4248;SDS011;8404;48.752;12.922;2022-07-18T15:20:02;0.75;;;0.35;;
4248;SDS011;8404;48.752;12.922;2022-07-18T15:22:33;2.33;;;0.55;;
4248;SDS011;8404;48.752;12.922;2022-07-18T15:25:02;3.30;;;0.55;;
4248;SDS011;8404;48.752;12.922;2022-07-18T15:27:30;1.58;;;0.50;;
4248;SDS011;8404;48.752;12.922;2022-07-18T15:29:59;1.45;;;0.55;;
4248;SDS011;8404;48.752;12.922;2022-07-18T15:32:47;2.45;;;0.63;;
4248;SDS011;8404;48.752;12.922;2022-07-18T15:35:15;2.25;;;0.90;;
4248;SDS011;8404;48.752;12.922;2022-07-18T15:37:46;1.48;;;0.60;;
4248;SDS011;8404;48.752;12.922;2022-07-18T15:40:22;1.90;;;0.65;;